sensor_id;sensor_type;location;lat;lon;timestamp;temperature;humidity
16814;DHT22;8524;57.650;11.926;2023-05-01T00:02:22;7.80;99.90
16814;DHT22;8524;57.650;11.926;2023-05-01T00:04:49;7.80;99.90
16814;DHT22;8524;57.650;11.926;2023-05-01T00:07:17;7.80;99.90
16814;DHT22;8524;57.650;11.926;2023-05-01T00:09:44;7.80;99.90
16814;DHT22;8524;57.650;11.926;2023-05-01T00:12:11;7.80;99.90
16814;DHT22;8524;57.650;11.926;2023-05-01T00:14:38;7.80;99.90
16814;DHT22;8524;57.650;11.926;2023-05-01T00:17:07;7.60;99.90
16814;DHT22;8524;57.650;11.926;2023-05-01T00:19:34;7.30;99.90
16814;DHT22;8524;57.650;11.926;2023-05-01T00:22:01;7.20;99.90
16814;DHT22;8524;57.650;11.926;2023-05-01T00:24:28;7.20;99.90
16814;DHT22;8524;57.650;11.926;2023-05-01T00:26:55;7.20;99.90
16814;DHT22;8524;57.650;11.926;2023-05-01T00:29:22;7.10;99.90
16814;DHT22;8524;57.650;11.926;2023-05-01T00:31:49;7.10;99.90
16814;DHT22;8524;57.650;11.926;2023-05-01T00:34:18;7.10;99.90
16814;DHT22;8524;57.650;11.926;2023-05-01T00:36:45;6.90;99.90
16814;DHT22;8524;57.650;11.926;2023-05-01T00:39:12;6.90;99.90
16814;DHT22;8524;57.650;11.926;2023-05-01T00:41:39;6.80;99.90
16814;DHT22;8524;57.650;11.926;2023-05-01T00:44:06;6.70;99.90
16814;DHT22;8524;57.650;11.926;2023-05-01T00:46:34;6.70;99.90
16814;DHT22;8524;57.650;11.926;2023-05-01T00:49:01;6.60;99.90
16814;DHT22;8524;57.650;11.926;2023-05-01T00:51:30;6.60;99.90
16814;DHT22;8524;57.650;11.926;2023-05-01T00:53:58;6.60;99.90
16814;DHT22;8524;57.650;11.926;2023-05-01T00:56:26;6.60;99.90
16814;DHT22;8524;57.650;11.926;2023-05-01T00:58:53;6.60;99.90
16814;DHT22;8524;57.650;11.926;2023-05-01T01:01:20;6.60;99.90
16814;DHT22;8524;57.650;11.926;2023-05-01T01:03:47;6.60;99.90
16814;DHT22;8524;57.650;11.926;2023-05-01T01:06:20;6.60;99.90
16814;DHT22;8524;57.650;11.926;2023-05-01T01:08:59;6.60;99.90
16814;DHT22;8524;57.650;11.926;2023-05-01T01:11:39;6.70;99.90
16814;DHT22;8524;57.650;11.926;2023-05-01T01:14:12;6.70;99.90
16814;DHT22;8524;57.650;11.926;2023-05-01T01:16:45;6.70;99.90
16814;DHT22;8524;57.650;11.926;2023-05-01T01:19:51;6.70;99.90
16814;DHT22;8524;57.650;11.926;2023-05-01T01:22:24;6.70;99.90
16814;DHT22;8524;57.650;11.926;2023-05-01T01:28:38;6.80;99.90
16814;DHT22;8524;57.650;11.926;2023-05-01T01:31:13;6.80;99.90
16814;DHT22;8524;57.650;11.926;2023-05-01T01:33:48;6.80;99.90
16814;DHT22;8524;57.650;11.926;2023-05-01T01:36:19;6.70;99.90
16814;DHT22;8524;57.650;11.926;2023-05-01T01:38:53;6.70;99.90
16814;DHT22;8524;57.650;11.926;2023-05-01T01:41:30;6.70;99.90
16814;DHT22;8524;57.650;11.926;2023-05-01T01:44:03;6.60;99.90
16814;DHT22;8524;57.650;11.926;2023-05-01T01:46:34;6.70;99.90
16814;DHT22;8524;57.650;11.926;2023-05-01T01:49:06;6.60;99.90
16814;DHT22;8524;57.650;11.926;2023-05-01T01:51:37;6.60;99.90
16814;DHT22;8524;57.650;11.926;2023-05-01T01:54:06;6.60;99.90
16814;DHT22;8524;57.650;11.926;2023-05-01T01:56:36;6.60;99.90
16814;DHT22;8524;57.650;11.926;2023-05-01T01:59:04;6.60;99.90
16814;DHT22;8524;57.650;11.926;2023-05-01T02:01:33;6.60;99.90
16814;DHT22;8524;57.650;11.926;2023-05-01T02:04:01;6.50;99.90
16814;DHT22;8524;57.650;11.926;2023-05-01T02:06:31;6.50;99.90
16814;DHT22;8524;57.650;11.926;2023-05-01T02:08:59;6.50;99.90
16814;DHT22;8524;57.650;11.926;2023-05-01T02:11:28;6.50;99.90
16814;DHT22;8524;57.650;11.926;2023-05-01T02:13:56;6.60;99.90
16814;DHT22;8524;57.650;11.926;2023-05-01T02:16:26;6.60;99.90
16814;DHT22;8524;57.650;11.926;2023-05-01T02:18:54;6.60;99.90
16814;DHT22;8524;57.650;11.926;2023-05-01T02:21:23;6.60;99.90
16814;DHT22;8524;57.650;11.926;2023-05-01T02:23:54;6.60;99.90
16814;DHT22;8524;57.650;11.926;2023-05-01T02:26:24;6.60;99.90
16814;DHT22;8524;57.650;11.926;2023-05-01T02:28:52;6.70;99.90
16814;DHT22;8524;57.650;11.926;2023-05-01T02:31:20;6.60;99.90
16814;DHT22;8524;57.650;11.926;2023-05-01T02:33:47;6.60;99.90
16814;DHT22;8524;57.650;11.926;2023-05-01T02:36:14;6.60;99.90
16814;DHT22;8524;57.650;11.926;2023-05-01T02:38:41;6.60;99.90
16814;DHT22;8524;57.650;11.926;2023-05-01T02:41:10;6.60;99.90
16814;DHT22;8524;57.650;11.926;2023-05-01T02:43:40;6.60;99.90
16814;DHT22;8524;57.650;11.926;2023-05-01T02:46:09;6.60;99.90
16814;DHT22;8524;57.650;11.926;2023-05-01T02:48:37;6.60;99.90
16814;DHT22;8524;57.650;11.926;2023-05-01T02:51:06;6.60;99.90
16814;DHT22;8524;57.650;11.926;2023-05-01T02:53:34;6.60;99.90
16814;DHT22;8524;57.650;11.926;2023-05-01T02:56:02;6.50;99.90
16814;DHT22;8524;57.650;11.926;2023-05-01T02:58:32;6.50;99.90
16814;DHT22;8524;57.650;11.926;2023-05-01T03:00:59;6.50;99.90
16814;DHT22;8524;57.650;11.926;2023-05-01T03:03:26;6.50;99.90
16814;DHT22;8524;57.650;11.926;2023-05-01T03:05:53;6.50;99.90
16814;DHT22;8524;57.650;11.926;2023-05-01T03:08:21;6.50;99.90
16814;DHT22;8524;57.650;11.926;2023-05-01T03:10:49;6.50;99.90
16814;DHT22;8524;57.650;11.926;2023-05-01T03:13:16;6.50;99.90
16814;DHT22;8524;57.650;11.926;2023-05-01T03:15:44;6.50;99.90
16814;DHT22;8524;57.650;11.926;2023-05-01T03:18:11;6.50;99.90
16814;DHT22;8524;57.650;11.926;2023-05-01T03:20:38;6.50;99.90
16814;DHT22;8524;57.650;11.926;2023-05-01T03:23:06;6.50;99.90
16814;DHT22;8524;57.650;11.926;2023-05-01T03:25:33;6.50;99.90
16814;DHT22;8524;57.650;11.926;2023-05-01T03:28:01;6.50;99.90
16814;DHT22;8524;57.650;11.926;2023-05-01T03:30:28;6.50;99.90
16814;DHT22;8524;57.650;11.926;2023-05-01T03:32:57;6.50;99.90
16814;DHT22;8524;57.650;11.926;2023-05-01T03:35:24;6.50;99.90
16814;DHT22;8524;57.650;11.926;2023-05-01T03:37:51;6.50;99.90
16814;DHT22;8524;57.650;11.926;2023-05-01T03:40:19;6.60;99.90
16814;DHT22;8524;57.650;11.926;2023-05-01T03:42:46;6.60;99.90
16814;DHT22;8524;57.650;11.926;2023-05-01T03:45:13;6.60;99.90
16814;DHT22;8524;57.650;11.926;2023-05-01T03:47:40;6.60;99.90
16814;DHT22;8524;57.650;11.926;2023-05-01T03:50:09;6.70;99.90
16814;DHT22;8524;57.650;11.926;2023-05-01T03:52:37;6.70;99.90
16814;DHT22;8524;57.650;11.926;2023-05-01T03:55:05;6.80;99.90
16814;DHT22;8524;57.650;11.926;2023-05-01T03:57:32;6.80;99.90
16814;DHT22;8524;57.650;11.926;2023-05-01T03:59:59;6.70;99.90
16814;DHT22;8524;57.650;11.926;2023-05-01T04:02:27;6.80;99.90
16814;DHT22;8524;57.650;11.926;2023-05-01T04:04:54;6.90;99.90
16814;DHT22;8524;57.650;11.926;2023-05-01T04:07:24;6.90;99.90
16814;DHT22;8524;57.650;11.926;2023-05-01T04:09:51;7.00;99.90
16814;DHT22;8524;57.650;11.926;2023-05-01T04:12:18;7.10;99.90
16814;DHT22;8524;57.650;11.926;2023-05-01T04:14:45;7.00;99.90
16814;DHT22;8524;57.650;11.926;2023-05-01T04:17:13;7.10;99.90
16814;DHT22;8524;57.650;11.926;2023-05-01T04:19:39;7.10;99.90
16814;DHT22;8524;57.650;11.926;2023-05-01T04:22:07;7.10;99.90
16814;DHT22;8524;57.650;11.926;2023-05-01T04:24:35;7.00;99.90
16814;DHT22;8524;57.650;11.926;2023-05-01T04:27:02;7.00;99.90
16814;DHT22;8524;57.650;11.926;2023-05-01T04:29:30;7.00;99.90
16814;DHT22;8524;57.650;11.926;2023-05-01T04:31:57;7.10;99.90
16814;DHT22;8524;57.650;11.926;2023-05-01T04:34:24;7.10;99.90
16814;DHT22;8524;57.650;11.926;2023-05-01T04:36:53;7.10;99.90
16814;DHT22;8524;57.650;11.926;2023-05-01T04:39:21;7.10;99.90
16814;DHT22;8524;57.650;11.926;2023-05-01T04:41:50;7.20;99.90
16814;DHT22;8524;57.650;11.926;2023-05-01T04:44:17;7.20;99.90
16814;DHT22;8524;57.650;11.926;2023-05-01T04:46:44;7.30;99.90
16814;DHT22;8524;57.650;11.926;2023-05-01T04:49:11;7.30;99.90
16814;DHT22;8524;57.650;11.926;2023-05-01T04:51:39;7.30;99.90
16814;DHT22;8524;57.650;11.926;2023-05-01T04:54:05;7.40;99.90
16814;DHT22;8524;57.650;11.926;2023-05-01T04:56:33;7.40;99.90
16814;DHT22;8524;57.650;11.926;2023-05-01T04:59:01;7.40;99.90
16814;DHT22;8524;57.650;11.926;2023-05-01T05:01:28;7.40;99.90
16814;DHT22;8524;57.650;11.926;2023-05-01T05:03:55;7.40;99.90
16814;DHT22;8524;57.650;11.926;2023-05-01T05:06:22;7.50;99.90
16814;DHT22;8524;57.650;11.926;2023-05-01T05:08:49;7.40;99.90
16814;DHT22;8524;57.650;11.926;2023-05-01T05:11:17;7.40;99.90
16814;DHT22;8524;57.650;11.926;2023-05-01T05:13:44;7.40;99.90
16814;DHT22;8524;57.650;11.926;2023-05-01T05:16:12;7.40;99.90
16814;DHT22;8524;57.650;11.926;2023-05-01T05:18:40;7.40;99.90
16814;DHT22;8524;57.650;11.926;2023-05-01T05:21:07;7.50;99.90
16814;DHT22;8524;57.650;11.926;2023-05-01T05:23:35;7.60;99.90
16814;DHT22;8524;57.650;11.926;2023-05-01T05:26:02;7.60;99.90
16814;DHT22;8524;57.650;11.926;2023-05-01T05:28:30;7.60;99.90
16814;DHT22;8524;57.650;11.926;2023-05-01T05:30:57;7.70;99.90
16814;DHT22;8524;57.650;11.926;2023-05-01T05:33:26;7.80;99.90
16814;DHT22;8524;57.650;11.926;2023-05-01T05:35:53;7.80;99.90
16814;DHT22;8524;57.650;11.926;2023-05-01T05:38:20;7.80;99.90
16814;DHT22;8524;57.650;11.926;2023-05-01T05:40:47;7.80;99.90
16814;DHT22;8524;57.650;11.926;2023-05-01T05:43:15;7.90;99.90
16814;DHT22;8524;57.650;11.926;2023-05-01T05:45:42;7.90;99.90
16814;DHT22;8524;57.650;11.926;2023-05-01T05:48:08;7.90;99.90
16814;DHT22;8524;57.650;11.926;2023-05-01T05:50:38;8.00;99.90
16814;DHT22;8524;57.650;11.926;2023-05-01T05:53:05;8.00;99.90
16814;DHT22;8524;57.650;11.926;2023-05-01T05:55:32;8.10;99.90
16814;DHT22;8524;57.650;11.926;2023-05-01T05:57:59;8.20;99.90
16814;DHT22;8524;57.650;11.926;2023-05-01T06:00:26;8.20;99.90
16814;DHT22;8524;57.650;11.926;2023-05-01T06:02:53;8.20;99.90
16814;DHT22;8524;57.650;11.926;2023-05-01T06:05:21;8.20;99.90
16814;DHT22;8524;57.650;11.926;2023-05-01T06:07:49;8.20;99.90
16814;DHT22;8524;57.650;11.926;2023-05-01T06:10:16;8.30;99.90
16814;DHT22;8524;57.650;11.926;2023-05-01T06:12:43;8.40;99.90
16814;DHT22;8524;57.650;11.926;2023-05-01T06:15:11;8.40;99.90
16814;DHT22;8524;57.650;11.926;2023-05-01T06:17:41;8.40;99.90
16814;DHT22;8524;57.650;11.926;2023-05-01T06:20:09;8.50;99.90
16814;DHT22;8524;57.650;11.926;2023-05-01T06:22:38;8.50;99.90
16814;DHT22;8524;57.650;11.926;2023-05-01T06:25:08;8.60;99.90
16814;DHT22;8524;57.650;11.926;2023-05-01T06:27:35;8.70;99.90
16814;DHT22;8524;57.650;11.926;2023-05-01T06:30:03;8.80;99.90
16814;DHT22;8524;57.650;11.926;2023-05-01T06:32:31;8.90;99.90
16814;DHT22;8524;57.650;11.926;2023-05-01T06:34:58;9.00;99.90
16814;DHT22;8524;57.650;11.926;2023-05-01T06:37:25;9.20;99.90
16814;DHT22;8524;57.650;11.926;2023-05-01T06:39:52;9.30;99.90
16814;DHT22;8524;57.650;11.926;2023-05-01T06:42:20;9.50;99.90
16814;DHT22;8524;57.650;11.926;2023-05-01T06:44:47;9.60;99.90
16814;DHT22;8524;57.650;11.926;2023-05-01T06:47:14;9.80;99.90
16814;DHT22;8524;57.650;11.926;2023-05-01T06:49:41;9.90;99.90
16814;DHT22;8524;57.650;11.926;2023-05-01T06:52:09;10.00;99.90
16814;DHT22;8524;57.650;11.926;2023-05-01T06:54:36;10.00;99.90
16814;DHT22;8524;57.650;11.926;2023-05-01T06:57:03;10.10;99.90
16814;DHT22;8524;57.650;11.926;2023-05-01T06:59:31;10.20;99.90
16814;DHT22;8524;57.650;11.926;2023-05-01T07:01:58;10.20;99.90
16814;DHT22;8524;57.650;11.926;2023-05-01T07:04:25;10.30;99.90
16814;DHT22;8524;57.650;11.926;2023-05-01T07:06:52;10.40;99.90
16814;DHT22;8524;57.650;11.926;2023-05-01T07:09:20;10.60;99.90
16814;DHT22;8524;57.650;11.926;2023-05-01T07:11:47;10.60;99.90
16814;DHT22;8524;57.650;11.926;2023-05-01T07:14:14;10.60;99.90
16814;DHT22;8524;57.650;11.926;2023-05-01T07:16:42;10.60;99.90
16814;DHT22;8524;57.650;11.926;2023-05-01T07:19:10;10.50;99.90
16814;DHT22;8524;57.650;11.926;2023-05-01T07:21:39;10.50;99.90
16814;DHT22;8524;57.650;11.926;2023-05-01T07:24:06;10.40;99.90
16814;DHT22;8524;57.650;11.926;2023-05-01T07:26:34;10.30;99.90
16814;DHT22;8524;57.650;11.926;2023-05-01T07:29:02;10.30;99.90
16814;DHT22;8524;57.650;11.926;2023-05-01T07:31:29;10.30;99.90
16814;DHT22;8524;57.650;11.926;2023-05-01T07:33:57;10.20;99.90
16814;DHT22;8524;57.650;11.926;2023-05-01T07:36:25;10.20;99.90
16814;DHT22;8524;57.650;11.926;2023-05-01T07:38:52;10.30;99.90
16814;DHT22;8524;57.650;11.926;2023-05-01T07:41:20;10.20;99.90
16814;DHT22;8524;57.650;11.926;2023-05-01T07:43:47;10.10;99.90
16814;DHT22;8524;57.650;11.926;2023-05-01T07:46:14;10.10;99.90
16814;DHT22;8524;57.650;11.926;2023-05-01T07:48:41;10.10;99.90
16814;DHT22;8524;57.650;11.926;2023-05-01T07:51:10;10.00;99.90
16814;DHT22;8524;57.650;11.926;2023-05-01T07:53:37;9.90;99.90
16814;DHT22;8524;57.650;11.926;2023-05-01T07:56:07;9.90;99.90
16814;DHT22;8524;57.650;11.926;2023-05-01T07:58:35;10.00;99.90
16814;DHT22;8524;57.650;11.926;2023-05-01T08:01:02;10.00;99.90
16814;DHT22;8524;57.650;11.926;2023-05-01T08:03:29;10.20;99.90
16814;DHT22;8524;57.650;11.926;2023-05-01T08:05:57;10.40;99.90
16814;DHT22;8524;57.650;11.926;2023-05-01T08:08:26;10.60;99.90
16814;DHT22;8524;57.650;11.926;2023-05-01T08:10:53;10.60;99.90
16814;DHT22;8524;57.650;11.926;2023-05-01T08:13:20;10.60;99.90
16814;DHT22;8524;57.650;11.926;2023-05-01T08:15:48;10.40;99.90
16814;DHT22;8524;57.650;11.926;2023-05-01T08:18:15;10.50;99.90
16814;DHT22;8524;57.650;11.926;2023-05-01T08:20:45;10.50;99.90
16814;DHT22;8524;57.650;11.926;2023-05-01T08:23:13;10.40;99.90
16814;DHT22;8524;57.650;11.926;2023-05-01T08:25:41;10.40;99.90
16814;DHT22;8524;57.650;11.926;2023-05-01T08:28:11;10.40;99.90
16814;DHT22;8524;57.650;11.926;2023-05-01T08:30:38;10.30;99.90
16814;DHT22;8524;57.650;11.926;2023-05-01T08:33:05;10.30;99.90
16814;DHT22;8524;57.650;11.926;2023-05-01T08:35:32;10.30;99.90
16814;DHT22;8524;57.650;11.926;2023-05-01T08:37:59;10.30;99.90
16814;DHT22;8524;57.650;11.926;2023-05-01T08:40:31;10.20;99.90
16814;DHT22;8524;57.650;11.926;2023-05-01T08:43:01;10.20;99.90
16814;DHT22;8524;57.650;11.926;2023-05-01T08:45:33;10.30;99.90
16814;DHT22;8524;57.650;11.926;2023-05-01T08:48:04;10.40;99.90
16814;DHT22;8524;57.650;11.926;2023-05-01T08:50:33;10.40;99.90
16814;DHT22;8524;57.650;11.926;2023-05-01T08:53:02;10.40;99.90
16814;DHT22;8524;57.650;11.926;2023-05-01T08:55:30;10.50;99.90
16814;DHT22;8524;57.650;11.926;2023-05-01T08:57:57;10.60;99.90
16814;DHT22;8524;57.650;11.926;2023-05-01T09:00:27;10.60;99.90
16814;DHT22;8524;57.650;11.926;2023-05-01T09:02:56;10.60;99.90
16814;DHT22;8524;57.650;11.926;2023-05-01T09:05:24;10.60;99.90
16814;DHT22;8524;57.650;11.926;2023-05-01T09:07:51;10.50;99.90
16814;DHT22;8524;57.650;11.926;2023-05-01T09:10:19;10.60;99.90
16814;DHT22;8524;57.650;11.926;2023-05-01T09:12:48;10.50;99.90
16814;DHT22;8524;57.650;11.926;2023-05-01T09:15:18;10.60;99.90
16814;DHT22;8524;57.650;11.926;2023-05-01T09:17:47;10.70;99.90
16814;DHT22;8524;57.650;11.926;2023-05-01T09:20:15;10.70;99.90
16814;DHT22;8524;57.650;11.926;2023-05-01T09:22:43;10.60;99.90
16814;DHT22;8524;57.650;11.926;2023-05-01T09:25:10;10.60;99.90
16814;DHT22;8524;57.650;11.926;2023-05-01T09:27:37;10.60;99.90
16814;DHT22;8524;57.650;11.926;2023-05-01T09:30:05;10.60;99.90
16814;DHT22;8524;57.650;11.926;2023-05-01T09:32:33;10.60;99.90
16814;DHT22;8524;57.650;11.926;2023-05-01T09:35:11;10.50;99.90
16814;DHT22;8524;57.650;11.926;2023-05-01T09:37:38;10.50;99.90
16814;DHT22;8524;57.650;11.926;2023-05-01T09:40:07;10.50;99.90
16814;DHT22;8524;57.650;11.926;2023-05-01T09:42:35;10.50;99.90
16814;DHT22;8524;57.650;11.926;2023-05-01T09:45:04;10.40;99.90
16814;DHT22;8524;57.650;11.926;2023-05-01T09:47:32;10.50;99.90
16814;DHT22;8524;57.650;11.926;2023-05-01T09:50:00;10.60;99.90
16814;DHT22;8524;57.650;11.926;2023-05-01T09:52:29;10.60;99.90
16814;DHT22;8524;57.650;11.926;2023-05-01T09:55:13;10.60;99.90
16814;DHT22;8524;57.650;11.926;2023-05-01T09:57:41;10.80;99.90
16814;DHT22;8524;57.650;11.926;2023-05-01T10:00:09;10.80;99.90
16814;DHT22;8524;57.650;11.926;2023-05-01T10:02:37;10.80;99.90
16814;DHT22;8524;57.650;11.926;2023-05-01T10:05:05;10.80;99.90
16814;DHT22;8524;57.650;11.926;2023-05-01T10:07:34;10.70;99.90
16814;DHT22;8524;57.650;11.926;2023-05-01T10:10:17;10.70;99.90
16814;DHT22;8524;57.650;11.926;2023-05-01T10:12:46;10.70;99.90
16814;DHT22;8524;57.650;11.926;2023-05-01T10:15:13;10.80;99.90
16814;DHT22;8524;57.650;11.926;2023-05-01T10:17:42;10.80;99.90
16814;DHT22;8524;57.650;11.926;2023-05-01T10:20:10;10.80;99.90
16814;DHT22;8524;57.650;11.926;2023-05-01T10:22:39;10.80;99.90
16814;DHT22;8524;57.650;11.926;2023-05-01T10:25:08;10.80;99.90
16814;DHT22;8524;57.650;11.926;2023-05-01T10:27:37;10.90;99.90
16814;DHT22;8524;57.650;11.926;2023-05-01T10:30:06;11.00;99.90
16814;DHT22;8524;57.650;11.926;2023-05-01T10:32:35;10.90;99.90
16814;DHT22;8524;57.650;11.926;2023-05-01T10:35:06;10.80;99.90
16814;DHT22;8524;57.650;11.926;2023-05-01T10:37:44;11.00;99.90
16814;DHT22;8524;57.650;11.926;2023-05-01T10:40:43;11.20;99.90
16814;DHT22;8524;57.650;11.926;2023-05-01T10:43:15;11.40;99.90
16814;DHT22;8524;57.650;11.926;2023-05-01T10:45:43;11.60;99.90
16814;DHT22;8524;57.650;11.926;2023-05-01T10:48:10;11.70;99.90
16814;DHT22;8524;57.650;11.926;2023-05-01T10:53:44;11.90;99.90
16814;DHT22;8524;57.650;11.926;2023-05-01T10:56:40;12.10;99.90
16814;DHT22;8524;57.650;11.926;2023-05-01T10:59:08;12.10;99.90
16814;DHT22;8524;57.650;11.926;2023-05-01T11:01:38;12.20;99.90
16814;DHT22;8524;57.650;11.926;2023-05-01T11:04:07;12.20;99.90
16814;DHT22;8524;57.650;11.926;2023-05-01T11:07:16;12.30;99.90
16814;DHT22;8524;57.650;11.926;2023-05-01T11:09:44;12.20;99.90
16814;DHT22;8524;57.650;11.926;2023-05-01T11:12:12;12.30;99.90
16814;DHT22;8524;57.650;11.926;2023-05-01T11:15:04;12.40;99.90
16814;DHT22;8524;57.650;11.926;2023-05-01T11:17:53;12.60;99.90
16814;DHT22;8524;57.650;11.926;2023-05-01T11:20:45;12.50;99.90
16814;DHT22;8524;57.650;11.926;2023-05-01T11:23:18;12.60;99.90
16814;DHT22;8524;57.650;11.926;2023-05-01T11:25:46;12.60;99.90
16814;DHT22;8524;57.650;11.926;2023-05-01T11:28:18;12.50;99.90
16814;DHT22;8524;57.650;11.926;2023-05-01T11:30:49;12.50;99.90
16814;DHT22;8524;57.650;11.926;2023-05-01T11:33:23;12.30;99.90
16814;DHT22;8524;57.650;11.926;2023-05-01T11:36:00;12.30;99.90
16814;DHT22;8524;57.650;11.926;2023-05-01T11:38:29;12.20;99.90
16814;DHT22;8524;57.650;11.926;2023-05-01T11:41:01;12.20;99.90
16814;DHT22;8524;57.650;11.926;2023-05-01T11:43:29;12.10;99.90
16814;DHT22;8524;57.650;11.926;2023-05-01T11:45:56;12.00;99.90
16814;DHT22;8524;57.650;11.926;2023-05-01T11:48:29;12.00;99.90
16814;DHT22;8524;57.650;11.926;2023-05-01T11:50:57;11.90;99.90
16814;DHT22;8524;57.650;11.926;2023-05-01T11:53:24;12.00;99.90
16814;DHT22;8524;57.650;11.926;2023-05-01T11:55:52;11.90;99.90
16814;DHT22;8524;57.650;11.926;2023-05-01T11:58:33;11.90;99.90
16814;DHT22;8524;57.650;11.926;2023-05-01T12:01:01;11.80;99.90
16814;DHT22;8524;57.650;11.926;2023-05-01T12:03:31;11.70;99.90
16814;DHT22;8524;57.650;11.926;2023-05-01T12:06:05;11.90;99.90
16814;DHT22;8524;57.650;11.926;2023-05-01T12:08:32;11.80;99.90
16814;DHT22;8524;57.650;11.926;2023-05-01T12:11:01;11.90;99.90
16814;DHT22;8524;57.650;11.926;2023-05-01T12:13:28;11.90;99.90
16814;DHT22;8524;57.650;11.926;2023-05-01T12:15:56;11.90;99.90
16814;DHT22;8524;57.650;11.926;2023-05-01T12:18:25;11.80;99.90
16814;DHT22;8524;57.650;11.926;2023-05-01T12:20:53;11.80;99.90
16814;DHT22;8524;57.650;11.926;2023-05-01T12:23:30;11.70;99.90
16814;DHT22;8524;57.650;11.926;2023-05-01T12:25:57;11.60;99.90
16814;DHT22;8524;57.650;11.926;2023-05-01T12:28:26;11.60;99.90
16814;DHT22;8524;57.650;11.926;2023-05-01T12:31:00;11.70;99.90
16814;DHT22;8524;57.650;11.926;2023-05-01T12:33:28;11.80;99.90
16814;DHT22;8524;57.650;11.926;2023-05-01T12:36:08;11.80;99.90
16814;DHT22;8524;57.650;11.926;2023-05-01T12:38:36;11.90;99.90
16814;DHT22;8524;57.650;11.926;2023-05-01T12:41:03;11.90;99.90
16814;DHT22;8524;57.650;11.926;2023-05-01T12:43:34;11.90;99.90
16814;DHT22;8524;57.650;11.926;2023-05-01T12:46:02;11.90;99.90
16814;DHT22;8524;57.650;11.926;2023-05-01T12:48:29;11.90;99.90
16814;DHT22;8524;57.650;11.926;2023-05-01T12:50:57;11.90;99.90
16814;DHT22;8524;57.650;11.926;2023-05-01T12:53:27;11.90;99.90
16814;DHT22;8524;57.650;11.926;2023-05-01T12:55:55;11.80;99.90
16814;DHT22;8524;57.650;11.926;2023-05-01T12:58:23;11.70;99.90
16814;DHT22;8524;57.650;11.926;2023-05-01T13:00:53;11.70;99.90
16814;DHT22;8524;57.650;11.926;2023-05-01T13:03:23;11.60;99.90
16814;DHT22;8524;57.650;11.926;2023-05-01T13:05:52;11.60;99.90
16814;DHT22;8524;57.650;11.926;2023-05-01T13:08:28;11.50;99.90
16814;DHT22;8524;57.650;11.926;2023-05-01T13:10:56;11.60;99.90
16814;DHT22;8524;57.650;11.926;2023-05-01T13:13:25;11.60;99.90
16814;DHT22;8524;57.650;11.926;2023-05-01T13:16:02;11.50;99.90
16814;DHT22;8524;57.650;11.926;2023-05-01T13:18:31;11.50;99.90
16814;DHT22;8524;57.650;11.926;2023-05-01T13:21:06;11.50;99.90
16814;DHT22;8524;57.650;11.926;2023-05-01T13:23:33;11.50;99.90
16814;DHT22;8524;57.650;11.926;2023-05-01T13:26:01;11.50;99.90
16814;DHT22;8524;57.650;11.926;2023-05-01T13:28:29;11.40;99.90
16814;DHT22;8524;57.650;11.926;2023-05-01T13:30:57;11.30;99.90
16814;DHT22;8524;57.650;11.926;2023-05-01T13:33:25;11.30;99.90
16814;DHT22;8524;57.650;11.926;2023-05-01T13:35:53;11.20;99.90
16814;DHT22;8524;57.650;11.926;2023-05-01T13:38:22;11.10;99.90
16814;DHT22;8524;57.650;11.926;2023-05-01T13:40:49;11.10;99.90
16814;DHT22;8524;57.650;11.926;2023-05-01T13:43:17;10.90;99.90
16814;DHT22;8524;57.650;11.926;2023-05-01T13:45:46;10.80;99.90
16814;DHT22;8524;57.650;11.926;2023-05-01T13:48:16;10.80;99.90
16814;DHT22;8524;57.650;11.926;2023-05-01T13:50:44;10.70;99.90
16814;DHT22;8524;57.650;11.926;2023-05-01T13:53:11;10.70;99.90
16814;DHT22;8524;57.650;11.926;2023-05-01T13:55:39;10.80;99.90
16814;DHT22;8524;57.650;11.926;2023-05-01T13:58:07;10.70;99.90
16814;DHT22;8524;57.650;11.926;2023-05-01T14:00:34;10.70;99.90
16814;DHT22;8524;57.650;11.926;2023-05-01T14:03:02;10.70;99.90
16814;DHT22;8524;57.650;11.926;2023-05-01T14:05:30;10.60;99.90
16814;DHT22;8524;57.650;11.926;2023-05-01T14:07:57;10.60;99.90
16814;DHT22;8524;57.650;11.926;2023-05-01T14:10:26;10.50;99.90
16814;DHT22;8524;57.650;11.926;2023-05-01T14:12:54;10.50;99.90
16814;DHT22;8524;57.650;11.926;2023-05-01T14:15:22;10.50;99.90
16814;DHT22;8524;57.650;11.926;2023-05-01T14:17:50;10.50;99.90
16814;DHT22;8524;57.650;11.926;2023-05-01T14:20:17;10.50;99.90
16814;DHT22;8524;57.650;11.926;2023-05-01T14:22:47;10.40;99.90
16814;DHT22;8524;57.650;11.926;2023-05-01T14:25:22;10.50;99.90
16814;DHT22;8524;57.650;11.926;2023-05-01T14:27:50;10.40;99.90
16814;DHT22;8524;57.650;11.926;2023-05-01T14:30:24;10.40;99.90
16814;DHT22;8524;57.650;11.926;2023-05-01T14:32:53;10.40;99.90
16814;DHT22;8524;57.650;11.926;2023-05-01T14:35:22;10.40;99.90
16814;DHT22;8524;57.650;11.926;2023-05-01T14:37:50;10.40;99.90
16814;DHT22;8524;57.650;11.926;2023-05-01T14:40:22;10.40;99.90
16814;DHT22;8524;57.650;11.926;2023-05-01T14:42:51;10.40;99.90
16814;DHT22;8524;57.650;11.926;2023-05-01T14:45:18;10.30;99.90
16814;DHT22;8524;57.650;11.926;2023-05-01T14:47:46;10.30;99.90
16814;DHT22;8524;57.650;11.926;2023-05-01T14:50:18;10.30;99.90
16814;DHT22;8524;57.650;11.926;2023-05-01T14:52:45;10.40;99.90
16814;DHT22;8524;57.650;11.926;2023-05-01T14:55:16;10.40;99.90
16814;DHT22;8524;57.650;11.926;2023-05-01T14:57:44;10.40;99.90
16814;DHT22;8524;57.650;11.926;2023-05-01T15:00:14;10.40;99.90
16814;DHT22;8524;57.650;11.926;2023-05-01T15:02:41;10.40;99.90
16814;DHT22;8524;57.650;11.926;2023-05-01T15:05:08;10.40;99.90
16814;DHT22;8524;57.650;11.926;2023-05-01T15:07:35;10.40;99.90
16814;DHT22;8524;57.650;11.926;2023-05-01T15:10:03;10.40;99.90
16814;DHT22;8524;57.650;11.926;2023-05-01T15:12:31;10.30;99.90
16814;DHT22;8524;57.650;11.926;2023-05-01T15:14:59;10.40;99.90
16814;DHT22;8524;57.650;11.926;2023-05-01T15:17:26;10.40;99.90
16814;DHT22;8524;57.650;11.926;2023-05-01T15:19:53;10.40;99.90
16814;DHT22;8524;57.650;11.926;2023-05-01T15:22:20;10.40;99.90
16814;DHT22;8524;57.650;11.926;2023-05-01T15:24:47;10.40;99.90
16814;DHT22;8524;57.650;11.926;2023-05-01T15:27:14;10.40;99.90
16814;DHT22;8524;57.650;11.926;2023-05-01T15:29:43;10.40;99.90
16814;DHT22;8524;57.650;11.926;2023-05-01T15:32:10;10.50;99.90
16814;DHT22;8524;57.650;11.926;2023-05-01T15:34:38;10.50;99.90
16814;DHT22;8524;57.650;11.926;2023-05-01T15:37:05;10.50;99.90
16814;DHT22;8524;57.650;11.926;2023-05-01T15:39:33;10.50;99.90
16814;DHT22;8524;57.650;11.926;2023-05-01T15:42:00;10.50;99.90
16814;DHT22;8524;57.650;11.926;2023-05-01T15:44:27;10.50;99.90
16814;DHT22;8524;57.650;11.926;2023-05-01T15:46:55;10.60;99.90
16814;DHT22;8524;57.650;11.926;2023-05-01T15:49:22;10.50;99.90
16814;DHT22;8524;57.650;11.926;2023-05-01T15:51:49;10.50;99.90
16814;DHT22;8524;57.650;11.926;2023-05-01T15:54:16;10.50;99.90
16814;DHT22;8524;57.650;11.926;2023-05-01T15:56:43;10.50;99.90